Time;durP1;ratioP1;P1;durP2;ratioP2;P2;SDS_P1;SDS_P2;PMS_P1;PMS_P2;Temp;Humidity;BMP_temperature;BMP_pressure;BME280_temperature;BME280_humidity;BME280_pressure;Samples;Min_cycle;Max_cycle;Signal;HPM_P1;HPM_P2
2022/09/29 00:00:34;;;;;;;12.20;8.07;;;5.50;99.90;;;;;;5067151;28;20200;-43
2022/09/29 00:02:59;;;;;;;10.27;7.82;;;5.50;99.90;;;;;;5068932;28;20183;-45
2022/09/29 00:05:25;;;;;;;10.73;8.23;;;5.50;99.90;;;;;;5068573;28;20192;-47
2022/09/29 00:07:51;;;;;;;11.37;8.83;;;5.50;99.90;;;;;;5065781;28;20471;-46
2022/09/29 00:10:16;;;;;;;11.40;8.47;;;5.50;99.90;;;;;;5067189;28;20188;-44
2022/09/29 00:12:42;;;;;;;11.17;8.13;;;5.50;99.90;;;;;;5061835;28;20261;-47
2022/09/29 00:15:08;;;;;;;10.77;8.80;;;5.50;99.90;;;;;;5066056;28;20202;-44
2022/09/29 00:17:33;;;;;;;11.20;7.83;;;5.40;99.90;;;;;;5067430;28;20604;-44
2022/09/29 00:19:59;;;;;;;9.27;7.23;;;5.40;99.90;;;;;;5066522;28;20443;-47
2022/09/29 00:22:25;;;;;;;10.97;7.53;;;5.40;99.90;;;;;;5067886;28;20265;-47
2022/09/29 00:24:50;;;;;;;10.20;7.80;;;5.40;99.90;;;;;;5067329;28;20214;-44
2022/09/29 00:27:17;;;;;;;10.40;7.37;;;5.40;99.90;;;;;;5051497;28;20248;-44
2022/09/29 00:29:44;;;;;;;10.75;8.02;;;5.40;99.90;;;;;;5057107;28;20189;-44
2022/09/29 00:32:10;;;;;;;9.38;7.68;;;5.30;99.90;;;;;;5062963;28;20182;-44
2022/09/29 00:34:35;;;;;;;10.30;7.83;;;5.30;99.90;;;;;;5053989;28;20193;-44
2022/09/29 00:37:01;;;;;;;11.17;7.97;;;5.20;99.90;;;;;;5072043;28;20460;-44
2022/09/29 00:39:27;;;;;;;9.80;7.47;;;5.20;99.90;;;;;;5062947;28;20906;-44
2022/09/29 00:41:52;;;;;;;9.13;7.93;;;5.20;99.90;;;;;;5065026;28;20439;-45
2022/09/29 00:44:18;;;;;;;10.93;8.10;;;5.20;99.90;;;;;;5061487;28;20189;-45
2022/09/29 00:46:55;;;;;;;9.87;7.17;;;5.20;99.90;;;;;;5065580;28;20209;-48
2022/09/29 00:49:42;;;;;;;10.05;8.43;;;5.20;99.90;;;;;;5055692;28;20196;-44
2022/09/29 00:52:20;;;;;;;8.70;7.13;;;5.10;99.90;;;;;;5068991;28;20679;-45
2022/09/29 00:55:00;;;;;;;8.55;7.30;;;5.10;99.90;;;;;;5062586;28;20260;-45
2022/09/29 00:57:30;;;;;;;7.97;6.35;;;5.10;99.90;;;;;;5056326;28;20186;-46
2022/09/29 01:00:07;;;;;;;9.65;6.78;;;5.00;99.90;;;;;;5067076;28;20528;-48
2022/09/29 01:02:37;;;;;;;10.05;7.13;;;5.00;99.90;;;;;;5064722;28;20200;-44
2022/09/29 01:05:08;;;;;;;8.70;7.30;;;5.00;99.90;;;;;;5068219;28;20691;-44
2022/09/29 01:07:33;;;;;;;10.63;6.85;;;5.00;99.90;;;;;;5067703;28;20236;-46
2022/09/29 01:09:59;;;;;;;9.53;7.10;;;5.00;99.90;;;;;;5068501;28;20608;-47
2022/09/29 01:12:25;;;;;;;8.73;6.70;;;5.00;99.90;;;;;;5056911;28;20194;-50
2022/09/29 01:14:53;;;;;;;6.93;5.85;;;4.90;99.90;;;;;;5058365;28;20190;-44
2022/09/29 01:17:19;;;;;;;10.15;7.40;;;4.90;99.90;;;;;;5060992;28;20516;-46
2022/09/29 01:20:00;;;;;;;8.50;6.77;;;4.90;99.90;;;;;;5064711;28;20250;-47
2022/09/29 01:22:32;;;;;;;9.27;6.45;;;4.80;99.90;;;;;;5068430;28;20489;-53
2022/09/29 01:25:36;;;;;;;9.18;6.45;;;4.80;99.90;;;;;;5066446;28;20737;-47
2022/09/29 01:28:30;;;;;;;8.10;6.60;;;4.80;99.90;;;;;;5054577;28;20248;-45
2022/09/29 01:31:11;;;;;;;8.52;6.25;;;4.80;99.90;;;;;;5063374;28;20201;-44
2022/09/29 01:34:06;;;;;;;16.52;7.22;;;4.80;99.90;;;;;;5054810;28;20190;-43
2022/09/29 01:36:41;;;;;;;10.43;6.60;;;4.80;99.90;;;;;;5067039;28;20224;-45
2022/09/29 01:39:28;;;;;;;8.48;6.57;;;4.80;99.90;;;;;;5051226;28;20190;-41
2022/09/29 01:42:16;;;;;;;8.15;6.45;;;4.80;99.90;;;;;;5057675;28;20228;-45
2022/09/29 01:44:48;;;;;;;7.95;6.55;;;4.80;99.90;;;;;;5065555;28;20656;-45
2022/09/29 01:47:19;;;;;;;9.90;6.78;;;4.80;99.90;;;;;;5058377;28;20205;-45
2022/09/29 01:49:58;;;;;;;9.10;6.90;;;4.70;99.90;;;;;;5065378;28;20268;-43
2022/09/29 01:52:28;;;;;;;10.40;7.38;;;4.70;99.90;;;;;;5066566;28;20548;-44
2022/09/29 01:55:01;;;;;;;8.85;6.30;;;4.70;99.90;;;;;;5054799;28;20265;-47
2022/09/29 01:57:45;;;;;;;10.55;7.63;;;4.80;99.90;;;;;;5053575;28;20646;-44
2022/09/29 02:00:16;;;;;;;9.70;6.82;;;4.70;99.90;;;;;;5061749;28;20185;-44
2022/09/29 02:02:57;;;;;;;9.30;7.10;;;4.70;99.90;;;;;;5057365;28;20569;-49
2022/09/29 02:05:46;;;;;;;7.90;6.13;;;4.70;99.90;;;;;;5062724;28;20181;-45
2022/09/29 02:08:21;;;;;;;9.00;7.22;;;4.70;99.90;;;;;;5057854;28;20205;-44
2022/09/29 02:11:01;;;;;;;10.48;7.03;;;4.70;99.90;;;;;;5058858;28;20223;-44
2022/09/29 02:13:34;;;;;;;9.18;7.10;;;4.70;99.90;;;;;;5066808;28;20607;-47
2022/09/29 02:16:03;;;;;;;9.50;7.15;;;4.70;99.90;;;;;;5069781;28;20621;-48
2022/09/29 02:18:36;;;;;;;9.55;7.07;;;4.70;99.90;;;;;;5071306;28;20244;-46
2022/09/29 02:21:01;;;;;;;9.63;6.38;;;4.70;99.90;;;;;;5071383;28;20185;-45
2022/09/29 02:23:27;;;;;;;9.00;6.50;;;4.70;99.90;;;;;;5069311;28;20208;-46
2022/09/29 02:25:56;;;;;;;9.53;6.70;;;4.60;99.90;;;;;;5070690;28;20250;-48
2022/09/29 02:28:22;;;;;;;9.50;7.00;;;4.60;99.90;;;;;;5067436;28;20184;-45
2022/09/29 02:30:49;;;;;;;9.15;7.03;;;4.60;99.90;;;;;;5082877;28;20584;-47
2022/09/29 02:33:23;;;;;;;10.00;7.25;;;4.60;99.90;;;;;;5070536;28;20187;-44
2022/09/29 02:35:57;;;;;;;10.70;7.47;;;4.60;99.90;;;;;;5058517;28;20232;-45
2022/09/29 02:38:45;;;;;;;11.00;7.65;;;4.60;99.90;;;;;;5069004;28;20186;-44
2022/09/29 02:41:55;;;;;;;10.75;7.70;;;4.60;99.90;;;;;;5071142;28;20195;-45
2022/09/29 02:44:36;;;;;;;11.23;7.90;;;4.60;99.90;;;;;;5062027;28;20238;-43
2022/09/29 02:47:22;;;;;;;9.50;7.35;;;4.70;99.90;;;;;;5052317;28;20198;-45
2022/09/29 02:50:03;;;;;;;10.85;7.53;;;4.60;99.90;;;;;;5066880;28;20829;-46
2022/09/29 02:52:44;;;;;;;10.43;7.55;;;4.60;99.90;;;;;;5061485;28;20178;-43
2022/09/29 02:55:34;;;;;;;9.60;7.00;;;4.60;99.90;;;;;;5066417;28;20185;-44
2022/09/29 02:58:09;;;;;;;10.82;7.68;;;4.60;99.90;;;;;;5063493;28;20241;-42
2022/09/29 03:00:35;;;;;;;10.32;7.82;;;4.60;99.90;;;;;;5069450;28;20544;-49
2022/09/29 03:03:00;;;;;;;11.33;7.50;;;4.70;99.90;;;;;;5064217;28;20182;-46
2022/09/29 03:05:26;;;;;;;10.67;7.50;;;4.70;99.90;;;;;;5062815;28;20551;-47
2022/09/29 03:07:51;;;;;;;10.30;7.60;;;4.80;99.90;;;;;;5057717;28;20916;-44
2022/09/29 03:10:18;;;;;;;11.13;8.00;;;4.80;99.90;;;;;;5070084;28;20268;-46
2022/09/29 03:12:43;;;;;;;11.00;7.20;;;4.90;99.90;;;;;;5058757;28;20181;-46
2022/09/29 03:15:11;;;;;;;12.70;8.07;;;5.00;99.90;;;;;;5060723;28;20189;-43
2022/09/29 03:17:37;;;;;;;10.60;8.43;;;5.00;99.90;;;;;;5070050;28;20432;-44
2022/09/29 03:20:04;;;;;;;14.38;8.75;;;5.00;99.90;;;;;;5069038;28;20189;-46
2022/09/29 03:22:29;;;;;;;10.90;8.10;;;5.10;99.90;;;;;;5069768;28;20192;-48
2022/09/29 03:24:55;;;;;;;13.60;8.40;;;5.10;99.90;;;;;;5065046;28;20251;-44
2022/09/29 03:27:21;;;;;;;10.20;7.63;;;5.20;99.90;;;;;;5062282;28;20205;-46
2022/09/29 03:29:46;;;;;;;11.20;7.90;;;5.20;99.90;;;;;;5058862;28;20949;-47
2022/09/29 03:32:12;;;;;;;10.10;7.33;;;5.20;99.90;;;;;;5060563;28;20676;-46
2022/09/29 03:34:38;;;;;;;9.40;7.27;;;5.20;99.90;;;;;;5069722;28;20227;-48
2022/09/29 03:37:04;;;;;;;12.60;7.83;;;5.30;99.90;;;;;;5064282;28;20571;-45
2022/09/29 03:39:29;;;;;;;10.60;7.70;;;5.30;99.90;;;;;;5060708;28;20190;-48
2022/09/29 03:41:55;;;;;;;11.50;8.63;;;5.40;99.90;;;;;;5067669;28;20531;-45
2022/09/29 03:44:20;;;;;;;11.17;7.67;;;5.40;99.90;;;;;;5058037;28;20204;-44
2022/09/29 03:46:46;;;;;;;9.40;7.37;;;5.50;99.90;;;;;;5056237;28;20573;-47
2022/09/29 03:49:14;;;;;;;11.10;7.50;;;5.60;99.90;;;;;;5055777;28;20189;-46
2022/09/29 03:51:40;;;;;;;8.60;7.60;;;5.60;99.90;;;;;;5059345;28;20266;-46
2022/09/29 03:54:06;;;;;;;10.10;7.43;;;5.70;99.90;;;;;;5069546;28;20741;-45
2022/09/29 03:56:32;;;;;;;11.70;7.80;;;5.70;99.90;;;;;;5069739;28;20265;-45
2022/09/29 03:58:57;;;;;;;11.17;7.50;;;5.70;99.90;;;;;;5066138;28;20671;-46
2022/09/29 04:01:23;;;;;;;12.70;8.57;;;5.70;99.90;;;;;;5068333;28;20475;-47
2022/09/29 04:03:48;;;;;;;10.07;7.53;;;5.70;99.90;;;;;;5066231;28;20205;-47
2022/09/29 04:06:14;;;;;;;13.47;7.70;;;5.70;99.90;;;;;;5067617;28;20261;-44
2022/09/29 04:08:40;;;;;;;10.20;7.40;;;5.70;99.90;;;;;;5067673;28;20193;-45
2022/09/29 04:11:06;;;;;;;11.70;7.40;;;5.70;99.90;;;;;;5069444;28;20261;-47
2022/09/29 04:13:32;;;;;;;10.17;7.43;;;5.70;99.90;;;;;;5066261;28;20511;-44
2022/09/29 04:16:02;;;;;;;11.93;7.40;;;5.80;99.90;;;;;;5055357;28;20192;-46
2022/09/29 04:18:28;;;;;;;10.77;7.13;;;5.80;99.90;;;;;;5065316;28;20539;-46
2022/09/29 04:20:59;;;;;;;10.17;7.10;;;5.80;99.90;;;;;;5051069;28;20193;-45
2022/09/29 04:23:25;;;;;;;9.93;7.35;;;5.80;99.90;;;;;;5060179;28;20852;-45
2022/09/29 04:25:51;;;;;;;8.68;7.13;;;5.80;99.90;;;;;;5040028;28;20585;-44
2022/09/29 04:28:16;;;;;;;8.70;7.00;;;5.90;99.90;;;;;;5059797;28;20667;-49
2022/09/29 04:30:42;;;;;;;10.30;7.77;;;5.90;99.90;;;;;;5057709;28;20259;-46
2022/09/29 04:33:08;;;;;;;11.10;8.33;;;6.00;99.90;;;;;;5059849;28;20333;-47
2022/09/29 04:35:34;;;;;;;10.27;8.07;;;5.90;99.90;;;;;;5052375;28;20485;-47
2022/09/29 04:37:59;;;;;;;9.53;7.93;;;6.00;99.90;;;;;;5053640;28;20194;-46
2022/09/29 04:40:27;;;;;;;10.83;7.83;;;6.00;99.90;;;;;;5055340;28;20178;-49
2022/09/29 04:42:52;;;;;;;10.65;8.20;;;5.90;99.90;;;;;;5068173;28;20427;-51
2022/09/29 04:45:18;;;;;;;11.23;7.40;;;5.90;99.90;;;;;;5060940;28;20178;-47
2022/09/29 04:47:43;;;;;;;10.33;8.07;;;6.00;99.90;;;;;;5067367;28;20606;-51
2022/09/29 04:50:09;;;;;;;11.47;9.00;;;6.00;99.90;;;;;;5069004;28;20239;-44
2022/09/29 04:52:35;;;;;;;14.37;8.93;;;6.00;99.90;;;;;;5068861;28;20181;-47
2022/09/29 04:55:05;;;;;;;9.43;7.80;;;6.00;99.90;;;;;;5068995;28;20278;-48
2022/09/29 04:57:30;;;;;;;11.90;8.18;;;6.00;99.90;;;;;;5067806;28;20193;-48
2022/09/29 04:59:56;;;;;;;11.03;8.00;;;6.00;99.90;;;;;;5062629;28;20177;-48
2022/09/29 05:02:21;;;;;;;11.50;8.60;;;6.00;99.90;;;;;;5061427;28;20283;-44
2022/09/29 05:04:47;;;;;;;11.87;8.27;;;6.10;99.90;;;;;;5049428;28;20190;-46
2022/09/29 05:07:14;;;;;;;13.03;9.83;;;6.10;99.90;;;;;;5048707;28;20499;-47
2022/09/29 05:09:39;;;;;;;12.05;9.07;;;6.20;99.90;;;;;;5047178;28;20197;-49
2022/09/29 05:12:05;;;;;;;11.60;7.73;;;6.10;99.90;;;;;;5048626;28;20192;-47
2022/09/29 05:14:31;;;;;;;12.70;8.73;;;6.10;99.90;;;;;;5058262;28;20679;-50
2022/09/29 05:16:57;;;;;;;12.80;9.53;;;6.10;99.90;;;;;;5048550;28;20194;-45
2022/09/29 05:19:22;;;;;;;10.50;8.35;;;6.20;99.90;;;;;;5061561;28;20207;-47
2022/09/29 05:21:48;;;;;;;12.37;9.03;;;6.20;99.90;;;;;;5068487;28;20178;-46
2022/09/29 05:24:14;;;;;;;13.67;9.20;;;6.20;99.90;;;;;;5068488;28;20683;-47
2022/09/29 05:26:39;;;;;;;15.03;12.30;;;6.20;99.90;;;;;;5068476;28;20211;-47
2022/09/29 05:29:05;;;;;;;10.93;8.43;;;6.30;99.90;;;;;;5068457;28;20652;-46
2022/09/29 05:31:30;;;;;;;12.50;8.80;;;6.40;99.90;;;;;;5061089;28;20653;-45
2022/09/29 05:33:56;;;;;;;11.40;7.93;;;6.30;99.90;;;;;;5048475;28;20180;-47
2022/09/29 05:36:22;;;;;;;11.90;8.90;;;6.40;99.90;;;;;;5062446;28;20321;-50
2022/09/29 05:38:48;;;;;;;12.47;8.80;;;6.50;99.90;;;;;;5055268;28;20629;-47
2022/09/29 05:41:21;;;;;;;10.90;8.70;;;6.40;99.90;;;;;;5048310;28;20464;-46
2022/09/29 05:43:46;;;;;;;13.10;10.77;;;6.40;99.90;;;;;;5058015;28;20194;-48
2022/09/29 05:46:12;;;;;;;15.83;12.57;;;6.40;99.90;;;;;;5057290;28;20711;-44
2022/09/29 05:48:38;;;;;;;11.20;8.90;;;6.50;99.90;;;;;;5068254;28;20446;-46
2022/09/29 05:51:09;;;;;;;12.77;9.60;;;6.50;99.90;;;;;;5066580;28;20761;-45
2022/09/29 05:53:35;;;;;;;11.70;9.10;;;6.50;99.90;;;;;;5068152;28;20183;-50
2022/09/29 05:56:05;;;;;;;12.90;9.80;;;6.60;99.90;;;;;;5068021;28;20198;-46
2022/09/29 05:58:31;;;;;;;11.70;8.93;;;6.70;99.90;;;;;;5068043;28;20191;-47
2022/09/29 06:00:57;;;;;;;11.73;9.50;;;6.80;99.90;;;;;;5067704;28;20804;-46
2022/09/29 06:03:22;;;;;;;12.83;9.30;;;6.80;99.90;;;;;;5051971;28;20414;-45
2022/09/29 06:05:48;;;;;;;11.33;9.00;;;6.90;99.90;;;;;;5048026;28;20203;-49
2022/09/29 06:08:13;;;;;;;11.43;8.60;;;7.00;99.90;;;;;;5047907;28;20245;-45
2022/09/29 06:10:39;;;;;;;11.57;9.10;;;7.10;99.90;;;;;;5047810;28;20192;-48
2022/09/29 06:13:04;;;;;;;10.00;8.43;;;7.10;99.90;;;;;;5049482;28;20183;-46
2022/09/29 06:15:30;;;;;;;11.23;8.63;;;7.10;99.90;;;;;;5062773;28;20729;-52
2022/09/29 06:17:57;;;;;;;12.87;9.60;;;7.10;99.90;;;;;;5053577;28;20604;-50
2022/09/29 06:20:23;;;;;;;22.93;15.77;;;7.20;99.90;;;;;;5066975;28;20271;-53
2022/09/29 06:22:50;;;;;;;21.00;16.37;;;7.20;99.90;;;;;;5067838;28;20525;-53
2022/09/29 06:25:16;;;;;;;11.20;9.43;;;7.30;99.90;;;;;;5068174;28;20425;-50
2022/09/29 06:27:41;;;;;;;12.60;10.00;;;7.40;99.90;;;;;;5067725;28;20480;-50
2022/09/29 06:30:08;;;;;;;12.93;9.63;;;7.40;99.90;;;;;;5068088;28;20904;-51
2022/09/29 06:32:34;;;;;;;12.93;9.10;;;7.40;99.90;;;;;;5065431;28;20191;-52
2022/09/29 06:37:45;;;;;;;11.77;8.90;;;7.30;99.90;;;;;;5047792;28;20798;-52
2022/09/29 06:40:11;;;;;;;14.73;9.90;;;7.30;99.90;;;;;;5047907;28;20984;-47
2022/09/29 06:42:37;;;;;;;11.57;9.27;;;7.30;99.90;;;;;;5049656;28;20430;-45
2022/09/29 06:45:03;;;;;;;12.03;9.73;;;7.30;99.90;;;;;;5060285;28;20491;-50
2022/09/29 06:47:29;;;;;;;12.23;9.23;;;7.40;99.90;;;;;;5065130;28;20239;-50
2022/09/29 06:49:54;;;;;;;13.23;10.10;;;7.40;99.90;;;;;;5051331;28;20448;-54
2022/09/29 06:52:20;;;;;;;11.90;9.80;;;7.50;99.90;;;;;;5051118;28;20185;-47
2022/09/29 06:54:45;;;;;;;20.50;17.40;;;7.60;99.90;;;;;;5051288;28;20183;-47
2022/09/29 06:57:12;;;;;;;20.40;15.80;;;7.60;99.90;;;;;;5051128;28;20550;-45
2022/09/29 06:59:38;;;;;;;18.10;14.47;;;7.70;99.90;;;;;;5051297;28;20259;-46
2022/09/29 07:02:04;;;;;;;12.70;10.87;;;7.80;99.90;;;;;;5051293;28;20487;-47
2022/09/29 07:04:29;;;;;;;13.33;10.23;;;7.90;99.90;;;;;;5051310;28;20606;-45
2022/09/29 07:06:55;;;;;;;12.00;9.47;;;8.10;99.90;;;;;;5050893;28;20623;-45
2022/09/29 07:09:22;;;;;;;11.60;10.40;;;8.30;99.90;;;;;;5050986;28;20757;-51
2022/09/29 07:11:51;;;;;;;11.63;9.30;;;8.40;99.90;;;;;;5050733;28;20566;-49
2022/09/29 07:14:18;;;;;;;11.40;9.23;;;8.50;99.90;;;;;;5052626;28;20436;-47
2022/09/29 07:16:47;;;;;;;11.70;9.60;;;8.50;99.90;;;;;;5051447;28;21071;-46
2022/09/29 07:19:12;;;;;;;10.47;9.23;;;8.60;99.90;;;;;;5077944;28;20740;-46
2022/09/29 07:21:38;;;;;;;9.80;8.10;;;8.70;99.90;;;;;;5070848;28;20427;-50
2022/09/29 07:24:04;;;;;;;9.80;7.97;;;8.80;99.90;;;;;;5070753;28;20856;-45
2022/09/29 07:26:29;;;;;;;13.83;9.10;;;8.70;99.90;;;;;;5070503;28;20208;-46
2022/09/29 07:28:55;;;;;;;10.13;7.70;;;8.60;99.90;;;;;;5070415;28;20255;-45
2022/09/29 07:31:21;;;;;;;8.20;7.40;;;8.70;99.90;;;;;;5069107;28;20193;-45
2022/09/29 07:33:49;;;;;;;9.63;7.60;;;8.60;99.90;;;;;;5058152;28;20193;-48
2022/09/29 07:36:17;;;;;;;9.10;7.50;;;8.70;99.90;;;;;;5056274;28;20560;-46
2022/09/29 07:38:46;;;;;;;10.13;8.47;;;8.80;99.90;;;;;;5070479;28;20428;-47
2022/09/29 07:41:11;;;;;;;9.20;7.20;;;8.90;99.90;;;;;;5070441;28;20430;-47
2022/09/29 07:43:38;;;;;;;9.70;7.50;;;9.00;99.90;;;;;;5069435;28;20434;-45
2022/09/29 07:46:05;;;;;;;9.33;8.00;;;9.10;99.90;;;;;;5060592;28;20203;-46
2022/09/29 07:48:32;;;;;;;8.77;7.70;;;9.30;99.90;;;;;;5070086;28;20868;-48
2022/09/29 07:51:13;;;;;;;9.30;7.87;;;9.60;99.90;;;;;;5070595;28;20416;-44
2022/09/29 07:53:39;;;;;;;8.10;6.47;;;9.90;91.30;;;;;;5070045;28;20893;-44
2022/09/29 07:56:11;;;;;;;7.57;6.80;;;10.30;71.10;;;;;;5070294;28;20422;-44
2022/09/29 07:58:38;;;;;;;7.30;5.97;;;10.60;41.20;;;;;;5070090;28;20466;-48
2022/09/29 08:01:09;;;;;;;9.80;6.80;;;10.90;13.70;;;;;;5070042;28;20442;-49
2022/09/29 08:03:35;;;;;;;6.97;6.27;;;11.20;1.00;;;;;;5068669;28;20423;-51
2022/09/29 08:06:01;;;;;;;7.40;6.00;;;11.40;1.00;;;;;;5069826;28;20416;-49
2022/09/29 08:08:26;;;;;;;8.73;7.10;;;11.60;1.00;;;;;;5069637;28;20792;-46
2022/09/29 08:11:00;;;;;;;6.83;6.23;;;11.90;1.00;;;;;;5060244;28;20182;-47
2022/09/29 08:13:26;;;;;;;6.53;5.87;;;12.40;1.00;;;;;;5049685;28;20432;-50
2022/09/29 08:15:57;;;;;;;8.30;6.50;;;12.80;1.00;;;;;;5057358;28;20449;-47
2022/09/29 08:18:22;;;;;;;7.30;5.90;;;13.40;1.00;;;;;;5067663;28;20179;-45
2022/09/29 08:20:48;;;;;;;6.60;6.00;;;13.90;1.00;;;;;;5070081;28;20883;-45
2022/09/29 08:23:14;;;;;;;6.57;5.87;;;14.40;99.90;;;;;;5069204;28;20184;-47
2022/09/29 08:25:39;;;;;;;6.80;6.10;;;14.60;1.00;;;;;;5068751;28;20456;-46
2022/09/29 08:28:05;;;;;;;8.33;6.87;;;15.30;1.00;;;;;;5069243;28;20197;-48
2022/09/29 08:30:31;;;;;;;7.53;6.90;;;16.20;99.90;;;;;;5069436;28;20184;-45
2022/09/29 08:32:56;;;;;;;8.80;8.10;;;16.90;67.50;;;;;;5062218;28;20204;-45
2022/09/29 08:35:22;;;;;;;7.77;7.13;;;17.00;99.90;;;;;;5049206;28;20256;-45
2022/09/29 08:37:47;;;;;;;8.57;7.57;;;17.60;99.90;;;;;;5049479;28;20181;-44
2022/09/29 08:40:14;;;;;;;7.97;7.27;;;18.10;1.00;;;;;;5049436;28;20197;-47
2022/09/29 08:42:53;;;;;;;8.83;8.03;;;18.50;99.90;;;;;;5049243;28;20772;-48
2022/09/29 08:45:30;;;;;;;8.30;7.50;;;18.90;1.00;;;;;;5050869;28;20424;-51
2022/09/29 08:48:10;;;;;;;8.67;7.97;;;19.20;99.90;;;;;;5059099;28;20615;-47
2022/09/29 08:50:46;;;;;;;8.53;7.93;;;19.80;1.00;;;;;;5049406;28;20767;-51
2022/09/29 08:53:15;;;;;;;7.90;7.30;;;20.10;1.00;;;;;;5063582;28;20438;-49
2022/09/29 08:55:46;;;;;;;8.97;8.30;;;20.00;1.00;;;;;;5068915;28;20415;-48
2022/09/29 08:58:14;;;;;;;8.60;7.90;;;20.40;1.00;;;;;;5068700;28;20492;-45
2022/09/29 09:00:49;;;;;;;8.10;7.50;;;20.80;1.00;;;;;;5068935;28;20460;-49
2022/09/29 09:03:36;;;;;;;8.13;7.63;;;21.00;99.90;;;;;;5068785;28;20434;-45
2022/09/29 09:06:07;;;;;;;8.20;7.60;;;21.40;99.90;;;;;;5068566;28;20418;-47
2022/09/29 09:08:58;;;;;;;8.90;8.20;;;22.00;99.90;;;;;;5068782;28;20410;-47
2022/09/29 09:11:46;;;;;;;8.63;7.93;;;22.00;99.90;;;;;;5068761;28;20415;-50
2022/09/29 09:14:44;;;;;;;8.57;7.80;;;22.70;99.90;;;;;;5068606;28;20423;-48
2022/09/29 09:17:25;;;;;;;9.40;8.80;;;23.10;99.90;;;;;;5036463;28;20432;-50
2022/09/29 09:20:03;;;;;;;8.53;7.93;;;23.20;99.90;;;;;;5067677;28;20507;-50
2022/09/29 09:22:59;;;;;;;8.77;8.17;;;23.20;99.90;;;;;;5055315;28;20507;-48
2022/09/29 09:25:28;;;;;;;8.83;8.23;;;23.90;99.90;;;;;;5056090;28;20459;-49
2022/09/29 09:28:18;;;;;;;10.93;10.20;;;23.90;99.90;;;;;;5068358;28;20451;-46
2022/09/29 09:31:14;;;;;;;9.57;8.87;;;23.60;99.90;;;;;;5064397;28;20431;-46
2022/09/29 09:34:02;;;;;;;16.07;14.87;;;23.60;99.90;;;;;;5061911;28;20412;-49
2022/09/29 09:36:35;;;;;;;8.23;7.63;;;24.00;99.90;;;;;;5068330;28;20471;-46
2022/09/29 09:39:15;;;;;;;8.40;7.77;;;24.10;99.90;;;;;;5068376;28;20416;-51
2022/09/29 09:41:44;;;;;;;8.50;8.00;;;24.50;99.90;;;;;;5068619;28;20434;-48
2022/09/29 09:44:19;;;;;;;8.70;7.93;;;24.70;99.90;;;;;;5068065;28;20423;-47
2022/09/29 09:46:50;;;;;;;8.63;7.90;;;25.40;99.90;;;;;;5068434;28;20564;-45
2022/09/29 09:49:21;;;;;;;9.07;8.47;;;24.60;99.90;;;;;;5058561;28;20442;-44
2022/09/29 09:52:12;;;;;;;9.60;8.90;;;24.30;99.90;;;;;;5048542;28;20412;-46
2022/09/29 09:54:52;;;;;;;9.67;8.97;;;23.10;99.90;;;;;;5061999;28;20435;-50
2022/09/29 09:57:21;;;;;;;9.57;8.77;;;21.80;99.90;;;;;;5060174;28;20729;-47
2022/09/29 10:00:03;;;;;;;9.97;9.37;;;21.60;99.90;;;;;;5048052;28;20503;-48
2022/09/29 10:02:30;;;;;;;9.13;8.23;;;21.90;99.90;;;;;;5075869;28;20764;-50
2022/09/29 10:04:56;;;;;;;9.10;8.40;;;22.00;99.90;;;;;;5063012;28;20493;-48
2022/09/29 10:07:24;;;;;;;8.40;7.80;;;22.60;99.90;;;;;;5058461;28;20933;-50
2022/09/29 10:09:50;;;;;;;9.33;8.70;;;23.10;99.90;;;;;;5067954;28;20185;-46
2022/09/29 10:12:21;;;;;;;7.83;7.27;;;24.00;99.90;;;;;;5066619;28;20443;-50
2022/09/29 10:14:58;;;;;;;8.13;7.53;;;24.20;99.90;;;;;;5067587;28;20428;-46
2022/09/29 10:17:29;;;;;;;8.03;7.40;;;24.40;99.90;;;;;;5068073;28;20813;-50
2022/09/29 10:20:00;;;;;;;8.80;8.30;;;24.60;99.90;;;;;;5070400;28;20496;-45
2022/09/29 10:22:28;;;;;;;8.57;7.97;;;24.50;99.90;;;;;;5071724;28;20426;-46
2022/09/29 10:25:23;;;;;;;7.73;7.23;;;24.70;99.90;;;;;;5071770;28;20423;-47
2022/09/29 10:27:52;;;;;;;8.03;7.43;;;25.30;99.90;;;;;;5071884;28;20565;-48
2022/09/29 10:30:31;;;;;;;7.73;7.23;;;26.20;99.90;;;;;;5071674;28;20849;-44
2022/09/29 10:32:59;;;;;;;8.93;8.13;;;26.50;99.90;;;;;;5064229;28;20749;-47
2022/09/29 10:35:34;;;;;;;8.10;7.50;;;25.30;99.90;;;;;;5053559;28;20446;-45
2022/09/29 10:38:23;;;;;;;7.70;7.10;;;25.10;99.90;;;;;;5063138;28;20423;-47
2022/09/29 10:40:58;;;;;;;8.40;7.80;;;24.50;99.90;;;;;;5045280;28;20450;-51
2022/09/29 10:43:33;;;;;;;7.83;7.40;;;23.40;99.90;;;;;;5051433;28;20789;-49
2022/09/29 10:45:59;;;;;;;8.37;7.77;;;22.00;99.90;;;;;;5058454;28;20426;-49
2022/09/29 10:48:26;;;;;;;8.17;7.63;;;21.50;99.90;;;;;;5071678;28;20904;-48
2022/09/29 10:50:58;;;;;;;7.80;7.30;;;21.10;99.90;;;;;;5071373;28;20192;-46
2022/09/29 10:53:32;;;;;;;6.90;6.50;;;20.90;99.90;;;;;;5071446;28;20726;-45
2022/09/29 10:56:00;;;;;;;7.73;7.23;;;20.50;99.90;;;;;;5069966;28;20434;-49
2022/09/29 10:58:30;;;;;;;7.73;7.17;;;20.10;99.90;;;;;;5071535;28;20688;-48
2022/09/29 11:01:14;;;;;;;6.40;6.00;;;19.50;99.90;;;;;;5071990;28;20492;-48
2022/09/29 11:03:48;;;;;;;6.00;5.70;;;19.30;99.90;;;;;;5071446;28;20425;-47
2022/09/29 11:06:15;;;;;;;6.07;5.60;;;18.90;1.00;;;;;;5055847;28;20428;-49
2022/09/29 11:09:14;;;;;;;6.37;5.97;;;18.60;1.00;;;;;;5056317;28;20439;-46
2022/09/29 11:11:52;;;;;;;6.47;6.00;;;18.70;1.00;;;;;;5027966;28;20436;-51
2022/09/29 11:14:36;;;;;;;6.17;5.77;;;19.00;1.00;;;;;;5050982;28;20424;-46
2022/09/29 11:17:18;;;;;;;5.97;5.47;;;19.60;1.00;;;;;;5061048;28;20914;-47
2022/09/29 11:19:44;;;;;;;6.20;5.77;;;20.80;1.00;;;;;;5071052;28;20430;-49
2022/09/29 11:22:25;;;;;;;6.60;6.20;;;21.50;99.90;;;;;;5070741;28;20428;-45
2022/09/29 11:25:24;;;;;;;6.03;5.60;;;21.90;99.90;;;;;;5058404;28;20189;-47
2022/09/29 11:28:15;;;;;;;6.57;6.27;;;21.80;99.90;;;;;;5051173;28;21079;-46
2022/09/29 11:30:53;;;;;;;5.77;5.37;;;21.50;99.90;;;;;;5070110;28;20427;-45
2022/09/29 11:33:35;;;;;;;6.70;6.10;;;20.50;99.90;;;;;;5061826;28;20853;-49
2022/09/29 11:36:26;;;;;;;6.63;6.23;;;20.20;99.90;;;;;;5064187;28;20479;-47
2022/09/29 11:39:29;;;;;;;6.83;6.23;;;19.70;99.90;;;;;;5050483;28;20420;-49
2022/09/29 11:42:22;;;;;;;7.43;6.73;;;19.10;99.90;;;;;;5050262;28;20926;-52
2022/09/29 11:44:59;;;;;;;7.23;6.60;;;18.80;1.00;;;;;;5063449;28;20515;-53
2022/09/29 11:47:28;;;;;;;7.50;7.00;;;18.50;1.00;;;;;;5069903;28;20506;-53
2022/09/29 11:50:12;;;;;;;7.17;6.57;;;18.30;1.00;;;;;;5070289;28;20523;-48
2022/09/29 11:53:05;;;;;;;7.80;7.20;;;18.40;1.00;;;;;;5070228;28;20414;-53
2022/09/29 11:55:58;;;;;;;6.70;6.20;;;18.70;1.00;;;;;;5069884;28;20411;-50
2022/09/29 11:58:36;;;;;;;7.17;6.67;;;18.90;1.00;;;;;;5070229;28;20416;-44
2022/09/29 12:01:27;;;;;;;7.43;6.93;;;18.70;99.90;;;;;;5070120;28;20937;-48
2022/09/29 12:04:24;;;;;;;7.07;6.67;;;18.30;1.00;;;;;;5049226;28;20427;-48
2022/09/29 12:06:57;;;;;;;6.50;6.00;;;17.90;1.00;;;;;;5056501;28;20508;-47
2022/09/29 12:09:43;;;;;;;7.00;6.50;;;17.90;1.00;;;;;;5070202;28;20502;-47
2022/09/29 12:12:19;;;;;;;7.33;6.83;;;18.00;1.00;;;;;;5070123;28;20423;-46
2022/09/29 12:15:21;;;;;;;7.00;6.50;;;18.00;1.00;;;;;;5069745;28;20449;-45
2022/09/29 12:17:52;;;;;;;6.90;6.50;;;17.50;1.00;;;;;;5040222;28;20434;-48
2022/09/29 12:20:23;;;;;;;6.80;6.20;;;17.20;1.00;;;;;;5059062;28;20536;-45
2022/09/29 12:22:51;;;;;;;6.87;6.33;;;17.20;1.00;;;;;;5069500;28;20411;-44
2022/09/29 12:25:21;;;;;;;6.90;6.40;;;17.20;1.00;;;;;;5069397;28;20419;-46
2022/09/29 12:27:48;;;;;;;6.80;6.33;;;17.60;1.00;;;;;;5069242;28;20455;-46
2022/09/29 12:30:28;;;;;;;6.73;6.23;;;17.90;1.00;;;;;;5069734;28;20481;-48
2022/09/29 12:33:05;;;;;;;7.90;7.40;;;18.10;1.00;;;;;;5069596;28;20927;-48
2022/09/29 12:35:36;;;;;;;7.53;7.00;;;18.50;1.00;;;;;;5069115;28;20444;-48
2022/09/29 12:38:35;;;;;;;7.00;6.60;;;18.60;1.00;;;;;;5069994;28;20487;-45
2022/09/29 12:41:07;;;;;;;7.20;6.73;;;18.80;1.00;;;;;;5069032;28;20528;-47
2022/09/29 12:44:08;;;;;;;7.07;6.57;;;19.10;99.90;;;;;;5069022;28;20521;-47
2022/09/29 12:46:41;;;;;;;6.73;6.33;;;18.80;99.90;;;;;;5060914;28;20474;-45
2022/09/29 12:49:42;;;;;;;7.30;6.90;;;18.70;99.90;;;;;;5056784;28;20416;-50
2022/09/29 12:52:19;;;;;;;6.20;5.73;;;18.30;99.90;;;;;;5049455;28;20441;-47
2022/09/29 12:54:54;;;;;;;7.07;6.57;;;18.30;1.00;;;;;;5069053;28;20474;-49
2022/09/29 12:57:44;;;;;;;7.83;7.13;;;18.00;1.00;;;;;;5067600;28;20845;-46
2022/09/29 13:00:13;;;;;;;6.60;6.10;;;18.10;1.00;;;;;;5064761;28;20528;-45
2022/09/29 13:02:41;;;;;;;6.50;6.00;;;18.00;1.00;;;;;;5048789;28;20416;-48
2022/09/29 13:05:28;;;;;;;7.53;7.03;;;18.00;1.00;;;;;;5048797;28;20427;-48
2022/09/29 13:07:57;;;;;;;7.67;7.07;;;17.70;1.00;;;;;;5063190;28;20959;-48
2022/09/29 13:10:47;;;;;;;6.40;6.00;;;17.80;1.00;;;;;;5068902;28;20898;-46
2022/09/29 13:13:15;;;;;;;6.93;6.43;;;17.70;1.00;;;;;;5068600;28;20449;-45
2022/09/29 13:15:56;;;;;;;6.40;6.00;;;17.70;1.00;;;;;;5067955;28;20761;-46
2022/09/29 13:18:59;;;;;;;6.10;5.70;;;17.70;1.00;;;;;;5055355;28;20748;-47